sensor_id;sensor_type;location;lat;lon;timestamp;P1;durP1;ratioP1;P2;durP2;ratioP2
16624;SDS011;8426;48.496;9.098;2024-03-08T00:03:18;27.97;;;12.50;;
16624;SDS011;8426;48.496;9.098;2024-03-08T00:08:26;25.70;;;11.53;;
16624;SDS011;8426;48.496;9.098;2024-03-08T00:13:49;24.53;;;10.87;;
16624;SDS011;8426;48.496;9.098;2024-03-08T00:18:54;26.20;;;11.77;;
16624;SDS011;8426;48.496;9.098;2024-03-08T00:23:59;25.10;;;12.00;;
16624;SDS011;8426;48.496;9.098;2024-03-08T00:29:02;29.60;;;12.70;;
16624;SDS011;8426;48.496;9.098;2024-03-08T00:34:06;30.60;;;12.07;;
16624;SDS011;8426;48.496;9.098;2024-03-08T00:39:14;25.57;;;13.03;;
16624;SDS011;8426;48.496;9.098;2024-03-08T00:44:18;26.43;;;12.50;;
16624;SDS011;8426;48.496;9.098;2024-03-08T00:49:21;24.93;;;13.03;;
16624;SDS011;8426;48.496;9.098;2024-03-08T00:54:26;29.27;;;13.23;;
16624;SDS011;8426;48.496;9.098;2024-03-08T00:59:30;34.07;;;14.07;;
16624;SDS011;8426;48.496;9.098;2024-03-08T01:04:37;25.63;;;11.93;;
16624;SDS011;8426;48.496;9.098;2024-03-08T01:09:43;25.40;;;11.93;;
16624;SDS011;8426;48.496;9.098;2024-03-08T01:14:46;27.57;;;11.50;;
16624;SDS011;8426;48.496;9.098;2024-03-08T01:19:50;27.43;;;12.93;;
16624;SDS011;8426;48.496;9.098;2024-03-08T01:24:56;31.67;;;12.47;;
16624;SDS011;8426;48.496;9.098;2024-03-08T01:30:00;27.67;;;13.53;;
16624;SDS011;8426;48.496;9.098;2024-03-08T01:35:16;33.83;;;13.47;;
16624;SDS011;8426;48.496;9.098;2024-03-08T01:40:54;33.47;;;14.27;;
16624;SDS011;8426;48.496;9.098;2024-03-08T01:45:58;36.97;;;14.63;;
16624;SDS011;8426;48.496;9.098;2024-03-08T01:51:02;31.90;;;13.17;;
16624;SDS011;8426;48.496;9.098;2024-03-08T01:56:08;30.80;;;13.63;;
16624;SDS011;8426;48.496;9.098;2024-03-08T02:01:13;37.63;;;14.70;;
16624;SDS011;8426;48.496;9.098;2024-03-08T02:06:19;33.93;;;14.63;;
16624;SDS011;8426;48.496;9.098;2024-03-08T02:17:36;26.83;;;11.33;;
16624;SDS011;8426;48.496;9.098;2024-03-08T02:22:42;32.03;;;13.90;;
16624;SDS011;8426;48.496;9.098;2024-03-08T02:27:45;31.63;;;14.83;;
16624;SDS011;8426;48.496;9.098;2024-03-08T02:32:49;30.50;;;12.87;;
16624;SDS011;8426;48.496;9.098;2024-03-08T02:37:54;28.90;;;12.37;;
16624;SDS011;8426;48.496;9.098;2024-03-08T02:42:58;23.93;;;11.83;;
16624;SDS011;8426;48.496;9.098;2024-03-08T02:48:01;31.37;;;13.03;;
16624;SDS011;8426;48.496;9.098;2024-03-08T02:53:07;25.27;;;11.87;;
16624;SDS011;8426;48.496;9.098;2024-03-08T02:58:11;27.43;;;12.73;;
16624;SDS011;8426;48.496;9.098;2024-03-08T03:03:16;28.87;;;13.03;;
16624;SDS011;8426;48.496;9.098;2024-03-08T03:08:21;25.33;;;10.97;;
16624;SDS011;8426;48.496;9.098;2024-03-08T03:13:25;22.57;;;11.53;;
16624;SDS011;8426;48.496;9.098;2024-03-08T03:18:31;29.60;;;12.63;;
16624;SDS011;8426;48.496;9.098;2024-03-08T03:23:36;28.37;;;12.57;;
16624;SDS011;8426;48.496;9.098;2024-03-08T03:28:41;28.90;;;11.83;;
16624;SDS011;8426;48.496;9.098;2024-03-08T03:33:44;23.80;;;11.60;;
16624;SDS011;8426;48.496;9.098;2024-03-08T03:38:51;32.60;;;13.50;;
16624;SDS011;8426;48.496;9.098;2024-03-08T03:44:06;29.70;;;12.57;;
16624;SDS011;8426;48.496;9.098;2024-03-08T03:49:09;26.77;;;11.77;;
16624;SDS011;8426;48.496;9.098;2024-03-08T03:54:14;28.00;;;12.90;;
16624;SDS011;8426;48.496;9.098;2024-03-08T03:59:18;29.17;;;12.63;;
16624;SDS011;8426;48.496;9.098;2024-03-08T04:04:21;30.13;;;13.10;;
16624;SDS011;8426;48.496;9.098;2024-03-08T04:09:27;35.10;;;13.57;;
16624;SDS011;8426;48.496;9.098;2024-03-08T04:14:31;30.40;;;13.80;;
16624;SDS011;8426;48.496;9.098;2024-03-08T04:19:34;25.33;;;12.40;;
16624;SDS011;8426;48.496;9.098;2024-03-08T04:24:39;28.53;;;12.77;;
16624;SDS011;8426;48.496;9.098;2024-03-08T04:29:43;31.17;;;14.17;;
16624;SDS011;8426;48.496;9.098;2024-03-08T04:34:46;33.73;;;14.07;;
16624;SDS011;8426;48.496;9.098;2024-03-08T04:39:52;48.70;;;20.00;;
16624;SDS011;8426;48.496;9.098;2024-03-08T04:44:56;30.97;;;14.23;;
16624;SDS011;8426;48.496;9.098;2024-03-08T04:49:59;32.90;;;13.73;;
16624;SDS011;8426;48.496;9.098;2024-03-08T04:55:05;33.27;;;14.03;;
16624;SDS011;8426;48.496;9.098;2024-03-08T05:00:09;32.47;;;13.70;;
16624;SDS011;8426;48.496;9.098;2024-03-08T05:05:14;30.90;;;13.83;;
16624;SDS011;8426;48.496;9.098;2024-03-08T05:10:19;29.93;;;12.90;;
16624;SDS011;8426;48.496;9.098;2024-03-08T05:15:23;30.67;;;13.20;;
16624;SDS011;8426;48.496;9.098;2024-03-08T05:20:28;33.10;;;14.73;;
16624;SDS011;8426;48.496;9.098;2024-03-08T05:25:34;30.43;;;14.20;;
16624;SDS011;8426;48.496;9.098;2024-03-08T05:30:37;27.10;;;12.47;;
16624;SDS011;8426;48.496;9.098;2024-03-08T05:35:41;34.00;;;12.97;;
16624;SDS011;8426;48.496;9.098;2024-03-08T05:40:46;30.43;;;13.30;;
16624;SDS011;8426;48.496;9.098;2024-03-08T05:45:50;35.60;;;15.93;;
16624;SDS011;8426;48.496;9.098;2024-03-08T05:50:53;40.90;;;17.00;;
16624;SDS011;8426;48.496;9.098;2024-03-08T05:56:00;32.03;;;14.77;;
16624;SDS011;8426;48.496;9.098;2024-03-08T06:01:05;27.20;;;13.00;;
16624;SDS011;8426;48.496;9.098;2024-03-08T06:06:09;30.20;;;13.20;;
16624;SDS011;8426;48.496;9.098;2024-03-08T06:11:15;32.97;;;12.70;;
16624;SDS011;8426;48.496;9.098;2024-03-08T06:16:19;29.97;;;12.73;;
16624;SDS011;8426;48.496;9.098;2024-03-08T06:21:23;30.90;;;13.37;;
16624;SDS011;8426;48.496;9.098;2024-03-08T06:26:29;27.90;;;12.87;;
16624;SDS011;8426;48.496;9.098;2024-03-08T06:31:34;28.23;;;12.47;;
16624;SDS011;8426;48.496;9.098;2024-03-08T06:36:41;26.30;;;12.30;;
16624;SDS011;8426;48.496;9.098;2024-03-08T06:41:46;25.83;;;12.57;;
16624;SDS011;8426;48.496;9.098;2024-03-08T06:46:53;28.00;;;12.37;;
16624;SDS011;8426;48.496;9.098;2024-03-08T06:52:00;30.37;;;13.03;;
16624;SDS011;8426;48.496;9.098;2024-03-08T06:57:05;25.60;;;12.07;;
16624;SDS011;8426;48.496;9.098;2024-03-08T07:02:09;29.53;;;11.27;;
16624;SDS011;8426;48.496;9.098;2024-03-08T07:07:13;23.97;;;10.77;;
16624;SDS011;8426;48.496;9.098;2024-03-08T07:12:18;23.70;;;11.17;;
16624;SDS011;8426;48.496;9.098;2024-03-08T07:17:23;27.13;;;15.07;;
16624;SDS011;8426;48.496;9.098;2024-03-08T07:22:29;25.85;;;15.52;;
16624;SDS011;8426;48.496;9.098;2024-03-08T07:27:34;22.77;;;11.40;;
16624;SDS011;8426;48.496;9.098;2024-03-08T07:32:39;21.10;;;10.70;;
16624;SDS011;8426;48.496;9.098;2024-03-08T07:37:42;25.67;;;11.33;;
16624;SDS011;8426;48.496;9.098;2024-03-08T07:42:47;25.30;;;11.07;;
16624;SDS011;8426;48.496;9.098;2024-03-08T07:47:51;24.23;;;10.87;;
16624;SDS011;8426;48.496;9.098;2024-03-08T07:52:55;21.10;;;10.87;;
16624;SDS011;8426;48.496;9.098;2024-03-08T07:58:00;24.00;;;10.73;;
16624;SDS011;8426;48.496;9.098;2024-03-08T08:03:04;22.17;;;10.53;;
16624;SDS011;8426;48.496;9.098;2024-03-08T08:08:09;23.03;;;11.50;;
16624;SDS011;8426;48.496;9.098;2024-03-08T08:13:14;22.47;;;10.57;;
16624;SDS011;8426;48.496;9.098;2024-03-08T08:18:19;21.25;;;10.43;;
16624;SDS011;8426;48.496;9.098;2024-03-08T08:23:26;24.85;;;10.80;;
16624;SDS011;8426;48.496;9.098;2024-03-08T08:28:32;21.80;;;10.90;;
16624;SDS011;8426;48.496;9.098;2024-03-08T08:33:36;22.33;;;10.85;;
16624;SDS011;8426;48.496;9.098;2024-03-08T08:38:39;16.80;;;9.48;;
16624;SDS011;8426;48.496;9.098;2024-03-08T08:43:45;18.30;;;9.20;;
16624;SDS011;8426;48.496;9.098;2024-03-08T08:49:03;21.48;;;9.75;;
16624;SDS011;8426;48.496;9.098;2024-03-08T08:54:07;20.20;;;9.60;;
16624;SDS011;8426;48.496;9.098;2024-03-08T08:59:15;20.40;;;10.57;;
16624;SDS011;8426;48.496;9.098;2024-03-08T09:04:24;20.40;;;9.15;;
16624;SDS011;8426;48.496;9.098;2024-03-08T09:09:27;20.02;;;10.00;;
16624;SDS011;8426;48.496;9.098;2024-03-08T09:14:32;19.85;;;9.48;;
16624;SDS011;8426;48.496;9.098;2024-03-08T09:19:36;19.77;;;9.05;;
16624;SDS011;8426;48.496;9.098;2024-03-08T09:24:39;19.17;;;9.20;;
16624;SDS011;8426;48.496;9.098;2024-03-08T09:29:46;17.48;;;8.77;;
16624;SDS011;8426;48.496;9.098;2024-03-08T09:34:50;20.88;;;9.82;;
16624;SDS011;8426;48.496;9.098;2024-03-08T09:39:54;19.73;;;9.50;;
16624;SDS011;8426;48.496;9.098;2024-03-08T09:44:59;18.88;;;9.27;;
16624;SDS011;8426;48.496;9.098;2024-03-08T09:50:02;16.85;;;8.77;;
16624;SDS011;8426;48.496;9.098;2024-03-08T09:55:06;20.90;;;9.60;;
16624;SDS011;8426;48.496;9.098;2024-03-08T10:00:13;19.35;;;9.30;;
16624;SDS011;8426;48.496;9.098;2024-03-08T10:05:27;17.50;;;9.00;;
16624;SDS011;8426;48.496;9.098;2024-03-08T10:10:32;17.90;;;9.02;;
16624;SDS011;8426;48.496;9.098;2024-03-08T10:15:38;16.20;;;8.35;;
16624;SDS011;8426;48.496;9.098;2024-03-08T10:20:47;17.27;;;8.85;;
16624;SDS011;8426;48.496;9.098;2024-03-08T10:26:15;20.17;;;8.10;;
16624;SDS011;8426;48.496;9.098;2024-03-08T10:31:21;16.17;;;8.10;;
16624;SDS011;8426;48.496;9.098;2024-03-08T10:36:28;15.15;;;8.35;;
16624;SDS011;8426;48.496;9.098;2024-03-08T10:41:31;16.58;;;8.43;;
16624;SDS011;8426;48.496;9.098;2024-03-08T10:46:46;14.90;;;7.88;;
16624;SDS011;8426;48.496;9.098;2024-03-08T10:52:06;14.95;;;7.43;;
16624;SDS011;8426;48.496;9.098;2024-03-08T10:57:16;15.95;;;8.10;;
16624;SDS011;8426;48.496;9.098;2024-03-08T11:02:25;16.63;;;7.53;;
16624;SDS011;8426;48.496;9.098;2024-03-08T11:07:33;14.07;;;7.60;;
16624;SDS011;8426;48.496;9.098;2024-03-08T11:12:37;15.70;;;7.90;;
16624;SDS011;8426;48.496;9.098;2024-03-08T11:17:46;19.38;;;8.18;;
16624;SDS011;8426;48.496;9.098;2024-03-08T11:22:52;17.27;;;9.02;;
16624;SDS011;8426;48.496;9.098;2024-03-08T11:28:09;15.82;;;8.25;;
16624;SDS011;8426;48.496;9.098;2024-03-08T11:33:20;14.52;;;7.93;;
16624;SDS011;8426;48.496;9.098;2024-03-08T11:38:23;19.90;;;8.07;;
16624;SDS011;8426;48.496;9.098;2024-03-08T11:43:30;16.92;;;8.15;;
16624;SDS011;8426;48.496;9.098;2024-03-08T11:48:35;14.55;;;7.85;;
16624;SDS011;8426;48.496;9.098;2024-03-08T11:53:43;17.27;;;8.35;;
16624;SDS011;8426;48.496;9.098;2024-03-08T11:58:52;15.25;;;8.55;;
16624;SDS011;8426;48.496;9.098;2024-03-08T12:04:04;19.35;;;9.05;;
16624;SDS011;8426;48.496;9.098;2024-03-08T12:09:10;17.55;;;8.13;;
16624;SDS011;8426;48.496;9.098;2024-03-08T12:14:16;16.17;;;8.38;;
16624;SDS011;8426;48.496;9.098;2024-03-08T12:19:24;17.95;;;8.15;;
16624;SDS011;8426;48.496;9.098;2024-03-08T12:24:31;17.20;;;8.30;;
16624;SDS011;8426;48.496;9.098;2024-03-08T12:29:37;19.02;;;9.20;;
16624;SDS011;8426;48.496;9.098;2024-03-08T12:34:42;19.27;;;8.60;;
16624;SDS011;8426;48.496;9.098;2024-03-08T12:39:47;19.17;;;8.70;;
16624;SDS011;8426;48.496;9.098;2024-03-08T12:44:51;16.52;;;8.75;;
16624;SDS011;8426;48.496;9.098;2024-03-08T12:49:56;16.83;;;7.93;;
16624;SDS011;8426;48.496;9.098;2024-03-08T12:54:59;16.73;;;8.27;;
16624;SDS011;8426;48.496;9.098;2024-03-08T13:00:08;14.45;;;7.97;;
16624;SDS011;8426;48.496;9.098;2024-03-08T13:05:17;17.30;;;10.13;;
16624;SDS011;8426;48.496;9.098;2024-03-08T13:10:22;16.17;;;8.50;;
16624;SDS011;8426;48.496;9.098;2024-03-08T13:15:25;17.33;;;8.68;;
16624;SDS011;8426;48.496;9.098;2024-03-08T13:20:33;20.48;;;9.15;;
16624;SDS011;8426;48.496;9.098;2024-03-08T13:25:48;18.00;;;8.77;;
16624;SDS011;8426;48.496;9.098;2024-03-08T13:30:51;19.80;;;8.75;;
16624;SDS011;8426;48.496;9.098;2024-03-08T13:36:02;18.40;;;8.82;;
16624;SDS011;8426;48.496;9.098;2024-03-08T13:41:11;23.38;;;9.20;;
16624;SDS011;8426;48.496;9.098;2024-03-08T13:46:16;18.23;;;8.90;;
16624;SDS011;8426;48.496;9.098;2024-03-08T13:51:26;20.08;;;9.60;;
16624;SDS011;8426;48.496;9.098;2024-03-08T13:56:29;15.30;;;8.45;;
16624;SDS011;8426;48.496;9.098;2024-03-08T14:01:33;16.00;;;9.13;;
16624;SDS011;8426;48.496;9.098;2024-03-08T14:06:39;15.40;;;8.18;;
16624;SDS011;8426;48.496;9.098;2024-03-08T14:11:42;17.17;;;8.35;;
16624;SDS011;8426;48.496;9.098;2024-03-08T14:16:46;19.40;;;9.23;;
16624;SDS011;8426;48.496;9.098;2024-03-08T14:21:52;23.60;;;10.98;;
16624;SDS011;8426;48.496;9.098;2024-03-08T14:27:02;19.55;;;10.20;;
16624;SDS011;8426;48.496;9.098;2024-03-08T14:32:10;17.75;;;9.25;;
16624;SDS011;8426;48.496;9.098;2024-03-08T14:37:16;17.90;;;8.73;;
16624;SDS011;8426;48.496;9.098;2024-03-08T14:42:26;17.02;;;9.40;;
16624;SDS011;8426;48.496;9.098;2024-03-08T14:47:35;18.83;;;9.85;;
16624;SDS011;8426;48.496;9.098;2024-03-08T14:52:41;22.95;;;8.65;;
16624;SDS011;8426;48.496;9.098;2024-03-08T14:57:48;16.80;;;8.25;;
16624;SDS011;8426;48.496;9.098;2024-03-08T15:02:54;18.20;;;9.80;;
16624;SDS011;8426;48.496;9.098;2024-03-08T15:07:59;18.67;;;8.70;;
16624;SDS011;8426;48.496;9.098;2024-03-08T15:13:07;21.60;;;8.63;;
16624;SDS011;8426;48.496;9.098;2024-03-08T15:18:17;17.70;;;8.75;;
16624;SDS011;8426;48.496;9.098;2024-03-08T15:23:23;20.08;;;9.30;;
16624;SDS011;8426;48.496;9.098;2024-03-08T15:28:28;18.42;;;9.40;;
16624;SDS011;8426;48.496;9.098;2024-03-08T15:33:39;21.25;;;8.65;;
16624;SDS011;8426;48.496;9.098;2024-03-08T15:38:49;20.30;;;9.25;;
16624;SDS011;8426;48.496;9.098;2024-03-08T15:43:54;18.58;;;9.05;;
16624;SDS011;8426;48.496;9.098;2024-03-08T15:49:00;16.85;;;8.82;;
16624;SDS011;8426;48.496;9.098;2024-03-08T15:54:05;18.38;;;7.88;;
16624;SDS011;8426;48.496;9.098;2024-03-08T15:59:16;15.65;;;7.38;;
16624;SDS011;8426;48.496;9.098;2024-03-08T16:04:23;16.60;;;7.50;;
16624;SDS011;8426;48.496;9.098;2024-03-08T16:09:31;14.73;;;7.25;;
16624;SDS011;8426;48.496;9.098;2024-03-08T16:14:36;17.67;;;8.32;;
16624;SDS011;8426;48.496;9.098;2024-03-08T16:19:43;17.02;;;8.63;;
16624;SDS011;8426;48.496;9.098;2024-03-08T16:24:48;25.00;;;9.18;;
16624;SDS011;8426;48.496;9.098;2024-03-08T16:29:52;18.20;;;8.25;;
16624;SDS011;8426;48.496;9.098;2024-03-08T16:34:56;21.75;;;9.35;;
16624;SDS011;8426;48.496;9.098;2024-03-08T16:40:10;20.60;;;8.52;;
16624;SDS011;8426;48.496;9.098;2024-03-08T16:45:17;16.65;;;8.88;;
16624;SDS011;8426;48.496;9.098;2024-03-08T16:50:24;20.73;;;9.48;;
16624;SDS011;8426;48.496;9.098;2024-03-08T16:55:30;21.77;;;9.35;;
16624;SDS011;8426;48.496;9.098;2024-03-08T17:00:36;21.33;;;8.88;;
16624;SDS011;8426;48.496;9.098;2024-03-08T17:05:39;21.67;;;10.00;;
16624;SDS011;8426;48.496;9.098;2024-03-08T17:11:00;26.83;;;11.07;;
16624;SDS011;8426;48.496;9.098;2024-03-08T17:16:04;21.92;;;9.98;;
16624;SDS011;8426;48.496;9.098;2024-03-08T17:21:08;21.65;;;9.82;;
16624;SDS011;8426;48.496;9.098;2024-03-08T17:26:16;28.55;;;12.95;;
16624;SDS011;8426;48.496;9.098;2024-03-08T17:31:20;36.05;;;17.35;;
16624;SDS011;8426;48.496;9.098;2024-03-08T17:36:24;30.10;;;13.60;;
16624;SDS011;8426;48.496;9.098;2024-03-08T17:41:29;45.70;;;20.30;;
16624;SDS011;8426;48.496;9.098;2024-03-08T17:46:32;29.33;;;12.27;;
16624;SDS011;8426;48.496;9.098;2024-03-08T17:51:36;29.75;;;12.55;;
16624;SDS011;8426;48.496;9.098;2024-03-08T17:56:42;31.20;;;12.73;;
16624;SDS011;8426;48.496;9.098;2024-03-08T18:01:47;31.70;;;13.80;;
16624;SDS011;8426;48.496;9.098;2024-03-08T18:06:50;26.55;;;11.95;;
16624;SDS011;8426;48.496;9.098;2024-03-08T18:11:56;22.13;;;10.75;;
16624;SDS011;8426;48.496;9.098;2024-03-08T18:17:00;26.08;;;12.80;;
16624;SDS011;8426;48.496;9.098;2024-03-08T18:22:04;24.80;;;10.93;;
16624;SDS011;8426;48.496;9.098;2024-03-08T18:27:13;28.80;;;12.32;;
16624;SDS011;8426;48.496;9.098;2024-03-08T18:32:16;23.33;;;10.95;;
16624;SDS011;8426;48.496;9.098;2024-03-08T18:37:23;26.00;;;10.88;;
16624;SDS011;8426;48.496;9.098;2024-03-08T18:42:30;24.42;;;10.57;;
16624;SDS011;8426;48.496;9.098;2024-03-08T18:47:35;24.75;;;9.40;;
16624;SDS011;8426;48.496;9.098;2024-03-08T18:52:40;26.02;;;11.43;;
16624;SDS011;8426;48.496;9.098;2024-03-08T18:57:45;29.13;;;12.48;;
16624;SDS011;8426;48.496;9.098;2024-03-08T19:02:49;23.20;;;11.55;;
16624;SDS011;8426;48.496;9.098;2024-03-08T19:07:55;24.05;;;11.65;;
16624;SDS011;8426;48.496;9.098;2024-03-08T19:13:01;34.72;;;14.52;;
16624;SDS011;8426;48.496;9.098;2024-03-08T19:18:05;29.90;;;13.15;;
16624;SDS011;8426;48.496;9.098;2024-03-08T19:23:11;27.50;;;11.23;;
16624;SDS011;8426;48.496;9.098;2024-03-08T19:28:16;25.65;;;11.02;;
16624;SDS011;8426;48.496;9.098;2024-03-08T19:33:21;30.35;;;11.50;;
16624;SDS011;8426;48.496;9.098;2024-03-08T19:38:26;32.45;;;13.73;;
16624;SDS011;8426;48.496;9.098;2024-03-08T19:43:34;30.58;;;12.82;;
16624;SDS011;8426;48.496;9.098;2024-03-08T19:48:39;31.52;;;13.00;;
16624;SDS011;8426;48.496;9.098;2024-03-08T19:53:45;23.08;;;11.02;;
16624;SDS011;8426;48.496;9.098;2024-03-08T19:58:52;18.38;;;8.48;;
16624;SDS011;8426;48.496;9.098;2024-03-08T20:03:57;19.77;;;8.50;;
16624;SDS011;8426;48.496;9.098;2024-03-08T20:09:01;22.77;;;10.68;;
16624;SDS011;8426;48.496;9.098;2024-03-08T20:14:06;30.92;;;11.65;;
16624;SDS011;8426;48.496;9.098;2024-03-08T20:19:12;28.75;;;11.40;;
16624;SDS011;8426;48.496;9.098;2024-03-08T20:24:15;48.13;;;15.95;;
16624;SDS011;8426;48.496;9.098;2024-03-08T20:29:20;41.70;;;16.38;;
16624;SDS011;8426;48.496;9.098;2024-03-08T20:34:24;21.88;;;9.65;;
16624;SDS011;8426;48.496;9.098;2024-03-08T20:39:28;22.27;;;9.57;;
16624;SDS011;8426;48.496;9.098;2024-03-08T20:44:33;20.02;;;8.93;;
16624;SDS011;8426;48.496;9.098;2024-03-08T20:49:38;19.98;;;8.65;;
16624;SDS011;8426;48.496;9.098;2024-03-08T20:54:41;15.05;;;8.50;;
16624;SDS011;8426;48.496;9.098;2024-03-08T20:59:46;16.23;;;7.80;;
16624;SDS011;8426;48.496;9.098;2024-03-08T21:04:51;60.90;;;25.15;;
16624;SDS011;8426;48.496;9.098;2024-03-08T21:09:54;18.00;;;9.10;;
16624;SDS011;8426;48.496;9.098;2024-03-08T21:14:59;21.90;;;10.30;;
16624;SDS011;8426;48.496;9.098;2024-03-08T21:20:06;21.85;;;10.90;;
16624;SDS011;8426;48.496;9.098;2024-03-08T21:25:11;26.73;;;12.10;;
16624;SDS011;8426;48.496;9.098;2024-03-08T21:30:17;36.35;;;16.08;;
16624;SDS011;8426;48.496;9.098;2024-03-08T21:35:24;43.20;;;18.58;;
16624;SDS011;8426;48.496;9.098;2024-03-08T21:40:28;23.13;;;10.35;;
16624;SDS011;8426;48.496;9.098;2024-03-08T21:45:35;25.35;;;10.65;;
16624;SDS011;8426;48.496;9.098;2024-03-08T21:50:39;17.60;;;8.73;;
16624;SDS011;8426;48.496;9.098;2024-03-08T21:55:42;16.83;;;8.15;;
16624;SDS011;8426;48.496;9.098;2024-03-08T22:00:49;16.83;;;8.73;;
16624;SDS011;8426;48.496;9.098;2024-03-08T22:05:54;19.70;;;9.60;;
16624;SDS011;8426;48.496;9.098;2024-03-08T22:10:58;19.80;;;9.02;;
16624;SDS011;8426;48.496;9.098;2024-03-08T22:16:04;15.55;;;7.88;;
16624;SDS011;8426;48.496;9.098;2024-03-08T22:21:10;19.77;;;8.95;;
16624;SDS011;8426;48.496;9.098;2024-03-08T22:26:14;21.30;;;8.80;;
16624;SDS011;8426;48.496;9.098;2024-03-08T22:31:21;18.98;;;9.20;;
16624;SDS011;8426;48.496;9.098;2024-03-08T22:36:27;21.40;;;8.60;;
16624;SDS011;8426;48.496;9.098;2024-03-08T22:41:31;17.65;;;8.32;;
16624;SDS011;8426;48.496;9.098;2024-03-08T22:46:39;21.08;;;9.50;;
16624;SDS011;8426;48.496;9.098;2024-03-08T22:51:43;17.48;;;8.15;;
16624;SDS011;8426;48.496;9.098;2024-03-08T22:56:46;19.85;;;8.73;;
16624;SDS011;8426;48.496;9.098;2024-03-08T23:01:52;22.08;;;9.73;;
16624;SDS011;8426;48.496;9.098;2024-03-08T23:06:55;22.98;;;10.05;;
16624;SDS011;8426;48.496;9.098;2024-03-08T23:12:02;25.65;;;10.52;;
16624;SDS011;8426;48.496;9.098;2024-03-08T23:17:08;25.65;;;9.95;;
16624;SDS011;8426;48.496;9.098;2024-03-08T23:22:12;23.33;;;10.13;;
16624;SDS011;8426;48.496;9.098;2024-03-08T23:27:15;19.52;;;9.25;;
16624;SDS011;8426;48.496;9.098;2024-03-08T23:32:21;20.50;;;8.82;;
16624;SDS011;8426;48.496;9.098;2024-03-08T23:37:26;22.13;;;9.15;;
16624;SDS011;8426;48.496;9.098;2024-03-08T23:42:30;20.25;;;9.50;;
16624;SDS011;8426;48.496;9.098;2024-03-08T23:47:35;22.27;;;8.82;;
16624;SDS011;8426;48.496;9.098;2024-03-08T23:52:39;17.73;;;9.05;;
16624;SDS011;8426;48.496;9.098;2024-03-08T23:57:44;23.85;;;9.55;;
